עמוד ראשי
METAR-TAF:

METAR-TAF

שדות תעופה :

Andersen, גואם, ארצות הברית

קו רוחב: 13-35N, קו אורך: 144-56E, גובה: 187מטר

תצפית מזג אוויר נוכחית

הדו"ח נערך לפני 16דקות, בשעה 19:10 UTC
רוח 10קשר מכיוון מזרח/דרום-מזרח
טמפרטורת 27 צלסיוס
לחות 84%
לחץ 1011 hPa
ראות: 16.1קילומטר
עננים פזורים בגובה 1300רגל

METAR: PGUA 161910Z AUTO 11010KT 10SM SCT013 27/24 A2984 RMK AO2 SLP095 $

זמן: 05:26 (19:26 UTC)

תחזית

הדו"ח נערך לפני 1 שעות ו 26דקות, בשעה 18:00 UTC
תחזית בתוקף מ 16 ב 18 UTC עד 17 ב 24 UTC
רוח 15קשר מכיוון מזרח עם משבים עד 20קשר
ראות 10 קילומטר או יותר
עננים בינוניים בגובה 1200רגל
זמנית מ -
17 ב 02 UTC עד 17 ב 06 UTC
רוח 15קשר מכיוון מזרח/דרום-מזרח עם משבים עד 25קשר
ראות: 6000מטר
מעונן בגובה 1000רגל , קומולונימבוס.
ממטרי גשם קלים, סופת רעמים במרחב,

TAF: PGUA 161800Z 1618/1724 10015G20KT 9999 BKN012 QNH2984INS TEMPO 1702/1706 12015G25KT 6000 -SHRA VCTS OVC010CB TX31/1702Z TN27/1618Z

תצפיות ותחזיות מזג אוויר לגבי יותר מ- 4,000 שדות תעופה ברחבי העולם. דוחות METAR ו- TAF.

התחנות הזמינות מסומנות בנקודות צהובות ואדומות על גבי המפה.

העבר את העכבר לנקודה הצבעונית על מנת לראות את שם התחנה.

לאחר מכן, לחץ כדי לראות את תוכן ואת תחזיות מזג האוויר.

כדי לשנות את המפה: לחץ על הכפתורים הירוקים עם הפלוס השחור כדי להתקרב; על הכפתור הירוק עם המקף כדי להתרחק; או בחיצים הירוקים למפות סמוכות.


METAR-TAF: